sensor_id;sensor_type;location;lat;lon;timestamp;pressure;altitude;pressure_sealevel;temperature;humidity
41264;BME280;26998;48.714;9.414;2023-07-31T00:01:19;99825.69;;;13.38;100.00
41264;BME280;26998;48.714;9.414;2023-07-31T00:03:46;99847.09;;;13.31;100.00
41264;BME280;26998;48.714;9.414;2023-07-31T00:06:13;99843.59;;;13.31;100.00
41264;BME280;26998;48.714;9.414;2023-07-31T00:08:39;99842.78;;;13.30;100.00
41264;BME280;26998;48.714;9.414;2023-07-31T00:11:06;99848.31;;;13.29;100.00
41264;BME280;26998;48.714;9.414;2023-07-31T00:13:38;99842.78;;;13.30;100.00
41264;BME280;26998;48.714;9.414;2023-07-31T00:16:04;99841.34;;;13.34;100.00
41264;BME280;26998;48.714;9.414;2023-07-31T00:18:31;99846.53;;;13.36;100.00
41264;BME280;26998;48.714;9.414;2023-07-31T00:20:58;99843.44;;;13.39;100.00
41264;BME280;26998;48.714;9.414;2023-07-31T00:23:24;99847.75;;;13.33;100.00
41264;BME280;26998;48.714;9.414;2023-07-31T00:25:51;99855.56;;;13.28;100.00
41264;BME280;26998;48.714;9.414;2023-07-31T00:28:17;99863.63;;;13.13;100.00
41264;BME280;26998;48.714;9.414;2023-07-31T00:30:44;99874.72;;;13.10;100.00
41264;BME280;26998;48.714;9.414;2023-07-31T00:33:10;99879.56;;;13.00;100.00
41264;BME280;26998;48.714;9.414;2023-07-31T00:35:37;99885.38;;;13.04;100.00
41264;BME280;26998;48.714;9.414;2023-07-31T00:38:03;99884.88;;;12.93;100.00
41264;BME280;26998;48.714;9.414;2023-07-31T00:40:34;99557.91;;;12.90;100.00
41264;BME280;26998;48.714;9.414;2023-07-31T00:43:01;99236.00;;;12.90;100.00
41264;BME280;26998;48.714;9.414;2023-07-31T00:45:28;99239.72;;;12.96;100.00
41264;BME280;26998;48.714;9.414;2023-07-31T00:47:55;99233.50;;;12.89;100.00
41264;BME280;26998;48.714;9.414;2023-07-31T00:50:24;99232.44;;;12.83;100.00
41264;BME280;26998;48.714;9.414;2023-07-31T00:52:51;99217.38;;;12.76;100.00
41264;BME280;26998;48.714;9.414;2023-07-31T00:55:18;99197.97;;;12.67;100.00
41264;BME280;26998;48.714;9.414;2023-07-31T00:57:49;99174.44;;;12.56;100.00
41264;BME280;26998;48.714;9.414;2023-07-31T01:00:15;99155.88;;;12.54;100.00
41264;BME280;26998;48.714;9.414;2023-07-31T01:02:42;99137.72;;;12.50;100.00
41264;BME280;26998;48.714;9.414;2023-07-31T01:05:09;99127.41;;;12.53;100.00
41264;BME280;26998;48.714;9.414;2023-07-31T01:07:42;99117.09;;;12.57;100.00
41264;BME280;26998;48.714;9.414;2023-07-31T01:10:16;99116.47;;;12.55;100.00
41264;BME280;26998;48.714;9.414;2023-07-31T01:12:45;99125.97;;;12.57;100.00
41264;BME280;26998;48.714;9.414;2023-07-31T01:15:12;99124.97;;;12.78;100.00
41264;BME280;26998;48.714;9.414;2023-07-31T01:17:38;99137.34;;;12.66;100.00
41264;BME280;26998;48.714;9.414;2023-07-31T01:20:10;99147.03;;;12.67;100.00
41264;BME280;26998;48.714;9.414;2023-07-31T01:28:08;99142.69;;;12.53;100.00
41264;BME280;26998;48.714;9.414;2023-07-31T01:30:41;99130.50;;;12.50;100.00
41264;BME280;26998;48.714;9.414;2023-07-31T01:33:10;99123.06;;;12.45;100.00
41264;BME280;26998;48.714;9.414;2023-07-31T01:35:37;99113.78;;;12.48;100.00
41264;BME280;26998;48.714;9.414;2023-07-31T01:38:05;99101.41;;;12.40;100.00
41264;BME280;26998;48.714;9.414;2023-07-31T01:40:31;99089.00;;;12.26;100.00
41264;BME280;26998;48.714;9.414;2023-07-31T01:42:58;99076.84;;;12.30;100.00
41264;BME280;26998;48.714;9.414;2023-07-31T01:45:24;99069.63;;;12.24;100.00
41264;BME280;26998;48.714;9.414;2023-07-31T01:47:51;99063.03;;;12.20;100.00
41264;BME280;26998;48.714;9.414;2023-07-31T01:50:18;99049.81;;;12.12;100.00
41264;BME280;26998;48.714;9.414;2023-07-31T01:52:44;99039.94;;;12.12;100.00
41264;BME280;26998;48.714;9.414;2023-07-31T01:55:11;99031.03;;;12.05;100.00
41264;BME280;26998;48.714;9.414;2023-07-31T01:57:37;99035.19;;;12.08;100.00
41264;BME280;26998;48.714;9.414;2023-07-31T02:00:04;99028.81;;;12.09;100.00
41264;BME280;26998;48.714;9.414;2023-07-31T02:02:31;99037.03;;;12.14;100.00
41264;BME280;26998;48.714;9.414;2023-07-31T02:04:58;99039.94;;;12.19;100.00
41264;BME280;26998;48.714;9.414;2023-07-31T02:07:25;99052.13;;;12.28;100.00
41264;BME280;26998;48.714;9.414;2023-07-31T02:09:51;99050.25;;;12.22;100.00
41264;BME280;26998;48.714;9.414;2023-07-31T02:12:18;99056.44;;;12.22;100.00
41264;BME280;26998;48.714;9.414;2023-07-31T02:14:44;99057.25;;;12.16;100.00
41264;BME280;26998;48.714;9.414;2023-07-31T02:17:10;99059.69;;;11.98;100.00
41264;BME280;26998;48.714;9.414;2023-07-31T02:19:37;99049.28;;;11.75;100.00
41264;BME280;26998;48.714;9.414;2023-07-31T02:22:05;99031.56;;;11.74;100.00
41264;BME280;26998;48.714;9.414;2023-07-31T02:24:32;99015.91;;;11.71;100.00
41264;BME280;26998;48.714;9.414;2023-07-31T02:26:58;99001.09;;;11.75;100.00
41264;BME280;26998;48.714;9.414;2023-07-31T02:29:25;98988.69;;;11.67;100.00
41264;BME280;26998;48.714;9.414;2023-07-31T02:31:51;98991.00;;;11.77;100.00
41264;BME280;26998;48.714;9.414;2023-07-31T02:34:18;98994.16;;;11.94;100.00
41264;BME280;26998;48.714;9.414;2023-07-31T02:36:45;98996.03;;;11.93;100.00
41264;BME280;26998;48.714;9.414;2023-07-31T02:39:11;99004.66;;;12.02;100.00
41264;BME280;26998;48.714;9.414;2023-07-31T02:41:38;99003.78;;;11.75;100.00
41264;BME280;26998;48.714;9.414;2023-07-31T02:44:04;99002.56;;;11.84;100.00
41264;BME280;26998;48.714;9.414;2023-07-31T02:46:31;98996.34;;;11.84;100.00
41264;BME280;26998;48.714;9.414;2023-07-31T02:48:57;99001.91;;;11.69;100.00
41264;BME280;26998;48.714;9.414;2023-07-31T02:51:24;98983.56;;;11.66;100.00
41264;BME280;26998;48.714;9.414;2023-07-31T02:53:50;98971.81;;;11.67;100.00
41264;BME280;26998;48.714;9.414;2023-07-31T02:56:16;98975.91;;;11.56;100.00
41264;BME280;26998;48.714;9.414;2023-07-31T02:58:43;98959.41;;;11.52;100.00
41264;BME280;26998;48.714;9.414;2023-07-31T03:01:10;98949.09;;;11.49;100.00
41264;BME280;26998;48.714;9.414;2023-07-31T03:03:36;98948.09;;;11.50;100.00
41264;BME280;26998;48.714;9.414;2023-07-31T03:06:03;98928.53;;;11.43;100.00
41264;BME280;26998;48.714;9.414;2023-07-31T03:08:29;98922.16;;;11.44;100.00
41264;BME280;26998;48.714;9.414;2023-07-31T03:10:56;98918.84;;;11.42;100.00
41264;BME280;26998;48.714;9.414;2023-07-31T03:13:23;98912.00;;;11.33;100.00
41264;BME280;26998;48.714;9.414;2023-07-31T03:15:50;98904.00;;;11.40;100.00
41264;BME280;26998;48.714;9.414;2023-07-31T03:18:17;98902.59;;;11.37;100.00
41264;BME280;26998;48.714;9.414;2023-07-31T03:20:43;98907.53;;;11.40;100.00
41264;BME280;26998;48.714;9.414;2023-07-31T03:23:10;98913.47;;;11.36;100.00
41264;BME280;26998;48.714;9.414;2023-07-31T03:25:37;98909.31;;;11.26;100.00
41264;BME280;26998;48.714;9.414;2023-07-31T03:28:03;98910.59;;;11.37;100.00
41264;BME280;26998;48.714;9.414;2023-07-31T03:30:30;98907.28;;;11.35;100.00
41264;BME280;26998;48.714;9.414;2023-07-31T03:32:57;98906.66;;;11.33;100.00
41264;BME280;26998;48.714;9.414;2023-07-31T03:35:23;98909.75;;;11.30;100.00
41264;BME280;26998;48.714;9.414;2023-07-31T03:37:51;98913.69;;;11.34;100.00
41264;BME280;26998;48.714;9.414;2023-07-31T03:40:17;98918.00;;;11.35;100.00
41264;BME280;26998;48.714;9.414;2023-07-31T03:42:44;98919.03;;;11.34;100.00
41264;BME280;26998;48.714;9.414;2023-07-31T03:45:10;98915.31;;;11.28;100.00
41264;BME280;26998;48.714;9.414;2023-07-31T03:47:37;98912.22;;;11.25;100.00
41264;BME280;26998;48.714;9.414;2023-07-31T03:50:03;98907.06;;;11.30;100.00
41264;BME280;26998;48.714;9.414;2023-07-31T03:52:30;98914.69;;;11.33;100.00
41264;BME280;26998;48.714;9.414;2023-07-31T03:54:56;98920.03;;;11.33;100.00
41264;BME280;26998;48.714;9.414;2023-07-31T03:57:23;98923.91;;;11.24;100.00
41264;BME280;26998;48.714;9.414;2023-07-31T03:59:52;98929.66;;;11.21;100.00
41264;BME280;26998;48.714;9.414;2023-07-31T04:02:18;98931.75;;;11.19;100.00
41264;BME280;26998;48.714;9.414;2023-07-31T04:04:45;98911.13;;;11.13;100.00
41264;BME280;26998;48.714;9.414;2023-07-31T04:07:12;98916.28;;;11.14;100.00
41264;BME280;26998;48.714;9.414;2023-07-31T04:09:38;98922.44;;;11.15;100.00
41264;BME280;26998;48.714;9.414;2023-07-31T04:12:05;98916.91;;;11.16;100.00
41264;BME280;26998;48.714;9.414;2023-07-31T04:14:32;98922.28;;;11.23;100.00
41264;BME280;26998;48.714;9.414;2023-07-31T04:16:58;98932.81;;;11.31;100.00
41264;BME280;26998;48.714;9.414;2023-07-31T04:19:28;98936.13;;;11.46;100.00
41264;BME280;26998;48.714;9.414;2023-07-31T04:21:54;98947.47;;;11.48;100.00
41264;BME280;26998;48.714;9.414;2023-07-31T04:24:21;98952.00;;;11.54;100.00
41264;BME280;26998;48.714;9.414;2023-07-31T04:26:47;98956.78;;;11.66;100.00
41264;BME280;26998;48.714;9.414;2023-07-31T04:29:14;98960.69;;;11.63;100.00
41264;BME280;26998;48.714;9.414;2023-07-31T04:31:40;98966.88;;;11.70;100.00
41264;BME280;26998;48.714;9.414;2023-07-31T04:34:07;98960.91;;;11.68;100.00
41264;BME280;26998;48.714;9.414;2023-07-31T04:36:34;98961.91;;;11.61;100.00
41264;BME280;26998;48.714;9.414;2023-07-31T04:39:01;98965.81;;;11.65;100.00
41264;BME280;26998;48.714;9.414;2023-07-31T04:41:27;98957.84;;;11.71;100.00
41264;BME280;26998;48.714;9.414;2023-07-31T04:43:56;98964.03;;;11.78;100.00
41264;BME280;26998;48.714;9.414;2023-07-31T04:46:23;98968.59;;;11.85;100.00
41264;BME280;26998;48.714;9.414;2023-07-31T04:48:50;98975.00;;;11.90;100.00
41264;BME280;26998;48.714;9.414;2023-07-31T04:51:16;98991.72;;;12.12;100.00
41264;BME280;26998;48.714;9.414;2023-07-31T04:53:43;99024.91;;;12.24;100.00
41264;BME280;26998;48.714;9.414;2023-07-31T04:56:09;99023.47;;;12.22;100.00
41264;BME280;26998;48.714;9.414;2023-07-31T04:58:35;99043.47;;;12.39;100.00
41264;BME280;26998;48.714;9.414;2023-07-31T05:01:02;99069.03;;;12.35;100.00
41264;BME280;26998;48.714;9.414;2023-07-31T05:03:28;99075.66;;;12.59;100.00
41264;BME280;26998;48.714;9.414;2023-07-31T05:06:03;99100.41;;;12.61;100.00
41264;BME280;26998;48.714;9.414;2023-07-31T05:08:29;99092.56;;;12.60;100.00
41264;BME280;26998;48.714;9.414;2023-07-31T05:10:56;99092.38;;;12.68;100.00
41264;BME280;26998;48.714;9.414;2023-07-31T05:13:23;99090.53;;;12.75;100.00
41264;BME280;26998;48.714;9.414;2023-07-31T05:15:49;99101.03;;;12.83;100.00
41264;BME280;26998;48.714;9.414;2023-07-31T05:18:16;99109.28;;;12.88;100.00
41264;BME280;26998;48.714;9.414;2023-07-31T05:20:43;99116.09;;;12.91;100.00
41264;BME280;26998;48.714;9.414;2023-07-31T05:23:09;99122.91;;;13.00;100.00
41264;BME280;26998;48.714;9.414;2023-07-31T05:25:36;99129.50;;;13.11;100.00
41264;BME280;26998;48.714;9.414;2023-07-31T05:28:02;99139.38;;;13.24;100.00
41264;BME280;26998;48.714;9.414;2023-07-31T05:30:32;99152.66;;;13.25;100.00
41264;BME280;26998;48.714;9.414;2023-07-31T05:32:59;99153.28;;;13.27;100.00
41264;BME280;26998;48.714;9.414;2023-07-31T05:35:26;99158.81;;;13.32;100.00
41264;BME280;26998;48.714;9.414;2023-07-31T05:37:52;99168.13;;;13.36;100.00
41264;BME280;26998;48.714;9.414;2023-07-31T05:40:19;99180.13;;;13.27;100.00
41264;BME280;26998;48.714;9.414;2023-07-31T05:42:45;99181.13;;;13.39;100.00
41264;BME280;26998;48.714;9.414;2023-07-31T05:45:12;99186.66;;;13.58;100.00
41264;BME280;26998;48.714;9.414;2023-07-31T05:47:39;99206.31;;;13.65;100.00
41264;BME280;26998;48.714;9.414;2023-07-31T05:50:06;99208.97;;;13.72;100.00
41264;BME280;26998;48.714;9.414;2023-07-31T05:52:33;99222.78;;;13.82;100.00
41264;BME280;26998;48.714;9.414;2023-07-31T05:55:00;99264.38;;;14.38;100.00
41264;BME280;26998;48.714;9.414;2023-07-31T05:57:26;99289.69;;;15.13;100.00
41264;BME280;26998;48.714;9.414;2023-07-31T05:59:53;99283.97;;;15.60;100.00
41264;BME280;26998;48.714;9.414;2023-07-31T06:02:19;99168.31;;;17.58;100.00
41264;BME280;26998;48.714;9.414;2023-07-31T06:04:46;99100.94;;;18.20;100.00
41264;BME280;26998;48.714;9.414;2023-07-31T06:07:13;99110.03;;;17.15;100.00
41264;BME280;26998;48.714;9.414;2023-07-31T06:09:42;99114.28;;;17.11;100.00
41264;BME280;26998;48.714;9.414;2023-07-31T06:12:09;99076.97;;;17.83;100.00
41264;BME280;26998;48.714;9.414;2023-07-31T06:14:35;99117.34;;;16.60;100.00
41264;BME280;26998;48.714;9.414;2023-07-31T06:17:02;99288.50;;;15.91;100.00
41264;BME280;26998;48.714;9.414;2023-07-31T06:19:28;99344.16;;;15.47;100.00
41264;BME280;26998;48.714;9.414;2023-07-31T06:21:56;99346.59;;;15.87;100.00
41264;BME280;26998;48.714;9.414;2023-07-31T06:24:25;99193.44;;;17.23;100.00
41264;BME280;26998;48.714;9.414;2023-07-31T06:26:51;99129.19;;;18.12;100.00
41264;BME280;26998;48.714;9.414;2023-07-31T06:29:18;99145.25;;;17.31;100.00
41264;BME280;26998;48.714;9.414;2023-07-31T06:31:44;99140.69;;;17.55;100.00
41264;BME280;26998;48.714;9.414;2023-07-31T06:34:11;99130.94;;;17.43;100.00
41264;BME280;26998;48.714;9.414;2023-07-31T06:36:38;99147.28;;;17.48;100.00
41264;BME280;26998;48.714;9.414;2023-07-31T06:39:04;99135.88;;;17.58;100.00
41264;BME280;26998;48.714;9.414;2023-07-31T06:41:31;99099.34;;;18.07;100.00
41264;BME280;26998;48.714;9.414;2023-07-31T06:43:58;99061.03;;;18.44;100.00
41264;BME280;26998;48.714;9.414;2023-07-31T06:46:25;98980.47;;;18.80;100.00
41264;BME280;26998;48.714;9.414;2023-07-31T06:48:53;99014.97;;;18.39;100.00
41264;BME280;26998;48.714;9.414;2023-07-31T06:51:19;99037.75;;;18.26;100.00
41264;BME280;26998;48.714;9.414;2023-07-31T06:53:46;99024.97;;;18.55;100.00
41264;BME280;26998;48.714;9.414;2023-07-31T06:56:12;98969.63;;;18.80;100.00
41264;BME280;26998;48.714;9.414;2023-07-31T06:58:39;98956.00;;;18.91;100.00
41264;BME280;26998;48.714;9.414;2023-07-31T07:01:06;98970.03;;;18.55;100.00
41264;BME280;26998;48.714;9.414;2023-07-31T07:03:32;98980.19;;;18.64;100.00
41264;BME280;26998;48.714;9.414;2023-07-31T07:05:59;98966.16;;;18.84;100.00
41264;BME280;26998;48.714;9.414;2023-07-31T07:08:25;98926.09;;;19.52;100.00
41264;BME280;26998;48.714;9.414;2023-07-31T07:10:53;98898.31;;;19.40;100.00
41264;BME280;26998;48.714;9.414;2023-07-31T07:13:21;98897.50;;;19.39;100.00
41264;BME280;26998;48.714;9.414;2023-07-31T07:15:50;98851.75;;;20.02;100.00
41264;BME280;26998;48.714;9.414;2023-07-31T07:18:17;98861.66;;;19.87;100.00
41264;BME280;26998;48.714;9.414;2023-07-31T07:20:50;98911.13;;;19.94;100.00
41264;BME280;26998;48.714;9.414;2023-07-31T07:23:19;98906.09;;;19.80;100.00
41264;BME280;26998;48.714;9.414;2023-07-31T07:25:46;98888.88;;;19.97;100.00
41264;BME280;26998;48.714;9.414;2023-07-31T07:28:13;98876.66;;;19.94;100.00
41264;BME280;26998;48.714;9.414;2023-07-31T07:30:40;98899.19;;;19.95;100.00
41264;BME280;26998;48.714;9.414;2023-07-31T07:33:07;98872.69;;;20.07;100.00
41264;BME280;26998;48.714;9.414;2023-07-31T07:35:36;98847.09;;;19.66;100.00
41264;BME280;26998;48.714;9.414;2023-07-31T07:38:02;98806.94;;;20.37;100.00
41264;BME280;26998;48.714;9.414;2023-07-31T07:40:29;98811.53;;;20.32;100.00
41264;BME280;26998;48.714;9.414;2023-07-31T07:42:56;98785.06;;;20.54;100.00
41264;BME280;26998;48.714;9.414;2023-07-31T07:45:22;98746.63;;;20.83;100.00
41264;BME280;26998;48.714;9.414;2023-07-31T07:47:49;98746.94;;;20.34;100.00
41264;BME280;26998;48.714;9.414;2023-07-31T07:50:15;98734.25;;;20.44;100.00
41264;BME280;26998;48.714;9.414;2023-07-31T07:52:45;98735.03;;;20.40;100.00
41264;BME280;26998;48.714;9.414;2023-07-31T07:55:12;98744.72;;;20.83;100.00
41264;BME280;26998;48.714;9.414;2023-07-31T07:57:38;98702.75;;;20.48;100.00
41264;BME280;26998;48.714;9.414;2023-07-31T08:00:05;98716.16;;;20.70;100.00
41264;BME280;26998;48.714;9.414;2023-07-31T08:02:32;98717.34;;;21.10;100.00
41264;BME280;26998;48.714;9.414;2023-07-31T08:04:58;98727.97;;;21.58;100.00
41264;BME280;26998;48.714;9.414;2023-07-31T08:07:25;98707.03;;;21.63;100.00
41264;BME280;26998;48.714;9.414;2023-07-31T08:09:52;98701.03;;;21.10;100.00
41264;BME280;26998;48.714;9.414;2023-07-31T08:12:19;98666.22;;;20.87;100.00
41264;BME280;26998;48.714;9.414;2023-07-31T08:14:45;98676.56;;;20.95;100.00
41264;BME280;26998;48.714;9.414;2023-07-31T08:17:12;98680.38;;;21.25;100.00
41264;BME280;26998;48.714;9.414;2023-07-31T08:19:38;98674.09;;;21.70;100.00
41264;BME280;26998;48.714;9.414;2023-07-31T08:22:05;98662.56;;;22.19;100.00
41264;BME280;26998;48.714;9.414;2023-07-31T08:24:31;98654.84;;;21.56;100.00
41264;BME280;26998;48.714;9.414;2023-07-31T08:26:58;98662.44;;;21.13;100.00
41264;BME280;26998;48.714;9.414;2023-07-31T08:29:25;98655.38;;;21.43;100.00
41264;BME280;26998;48.714;9.414;2023-07-31T08:31:51;98651.81;;;21.63;100.00
41264;BME280;26998;48.714;9.414;2023-07-31T08:34:18;98652.91;;;21.52;100.00
41264;BME280;26998;48.714;9.414;2023-07-31T08:36:44;98647.22;;;21.53;100.00
41264;BME280;26998;48.714;9.414;2023-07-31T08:39:10;98642.31;;;21.60;100.00
41264;BME280;26998;48.714;9.414;2023-07-31T08:41:40;98644.50;;;21.48;98.29
41264;BME280;26998;48.714;9.414;2023-07-31T08:44:07;98635.38;;;22.09;99.46
41264;BME280;26998;48.714;9.414;2023-07-31T08:46:34;98630.00;;;21.88;94.10
41264;BME280;26998;48.714;9.414;2023-07-31T08:49:04;98629.09;;;22.19;91.49
41264;BME280;26998;48.714;9.414;2023-07-31T08:51:34;98625.56;;;22.08;94.31
41264;BME280;26998;48.714;9.414;2023-07-31T08:54:01;98618.22;;;22.63;93.83
41264;BME280;26998;48.714;9.414;2023-07-31T08:56:28;98614.13;;;22.60;92.56
41264;BME280;26998;48.714;9.414;2023-07-31T08:58:55;98604.34;;;22.59;89.80
41264;BME280;26998;48.714;9.414;2023-07-31T09:01:23;98604.16;;;22.46;90.31
41264;BME280;26998;48.714;9.414;2023-07-31T09:03:51;98606.94;;;23.14;91.31
41264;BME280;26998;48.714;9.414;2023-07-31T09:06:20;98608.19;;;23.27;88.29
41264;BME280;26998;48.714;9.414;2023-07-31T09:08:49;98612.31;;;23.24;86.38
41264;BME280;26998;48.714;9.414;2023-07-31T09:11:18;98613.91;;;22.52;86.68
41264;BME280;26998;48.714;9.414;2023-07-31T09:13:45;98596.25;;;21.89;90.34
41264;BME280;26998;48.714;9.414;2023-07-31T09:16:12;98596.34;;;22.73;89.88
41264;BME280;26998;48.714;9.414;2023-07-31T09:18:56;98590.19;;;23.26;84.14
41264;BME280;26998;48.714;9.414;2023-07-31T09:21:23;98592.78;;;22.78;85.93
41264;BME280;26998;48.714;9.414;2023-07-31T09:23:50;98579.50;;;22.27;85.16
41264;BME280;26998;48.714;9.414;2023-07-31T09:26:36;98580.03;;;22.29;87.30
41264;BME280;26998;48.714;9.414;2023-07-31T09:29:06;98597.91;;;22.45;87.29
41264;BME280;26998;48.714;9.414;2023-07-31T09:31:42;98599.25;;;21.83;90.61
41264;BME280;26998;48.714;9.414;2023-07-31T09:34:09;98590.28;;;21.77;92.12
41264;BME280;26998;48.714;9.414;2023-07-31T09:36:46;98592.28;;;22.26;93.51
41264;BME280;26998;48.714;9.414;2023-07-31T09:39:14;98587.31;;;22.44;89.87
41264;BME280;26998;48.714;9.414;2023-07-31T09:41:47;98588.41;;;22.77;86.87
41264;BME280;26998;48.714;9.414;2023-07-31T09:44:19;98583.69;;;22.53;88.68
41264;BME280;26998;48.714;9.414;2023-07-31T09:46:45;98571.44;;;22.51;89.40
41264;BME280;26998;48.714;9.414;2023-07-31T09:49:14;98572.19;;;22.22;87.24
41264;BME280;26998;48.714;9.414;2023-07-31T09:51:42;98568.38;;;22.13;90.12
41264;BME280;26998;48.714;9.414;2023-07-31T09:54:17;98568.44;;;22.03;90.12
41264;BME280;26998;48.714;9.414;2023-07-31T09:56:46;98563.78;;;22.08;89.49
41264;BME280;26998;48.714;9.414;2023-07-31T09:59:18;98564.38;;;21.95;94.01
41264;BME280;26998;48.714;9.414;2023-07-31T10:01:50;98548.06;;;21.95;93.87
41264;BME280;26998;48.714;9.414;2023-07-31T10:04:17;98542.06;;;21.98;92.25
41264;BME280;26998;48.714;9.414;2023-07-31T10:06:46;98535.06;;;21.87;92.52
41264;BME280;26998;48.714;9.414;2023-07-31T10:09:15;98536.88;;;22.02;94.08
41264;BME280;26998;48.714;9.414;2023-07-31T10:11:59;98538.41;;;22.63;88.79
41264;BME280;26998;48.714;9.414;2023-07-31T10:14:27;98525.28;;;22.70;88.90
41264;BME280;26998;48.714;9.414;2023-07-31T10:16:54;98513.56;;;22.69;88.31
41264;BME280;26998;48.714;9.414;2023-07-31T10:19:22;98527.53;;;22.23;85.25
41264;BME280;26998;48.714;9.414;2023-07-31T10:21:49;98527.56;;;22.57;88.70
41264;BME280;26998;48.714;9.414;2023-07-31T10:24:16;98506.53;;;22.92;86.48
41264;BME280;26998;48.714;9.414;2023-07-31T10:26:45;98500.59;;;22.90;86.65
41264;BME280;26998;48.714;9.414;2023-07-31T10:29:15;98495.31;;;23.28;86.81
41264;BME280;26998;48.714;9.414;2023-07-31T10:31:44;98509.94;;;23.37;81.05
41264;BME280;26998;48.714;9.414;2023-07-31T10:34:12;98512.75;;;23.51;81.30
41264;BME280;26998;48.714;9.414;2023-07-31T10:36:40;98509.59;;;22.86;85.49
41264;BME280;26998;48.714;9.414;2023-07-31T10:39:33;98495.53;;;23.32;85.20
41264;BME280;26998;48.714;9.414;2023-07-31T10:42:14;98500.31;;;23.88;85.40
41264;BME280;26998;48.714;9.414;2023-07-31T10:44:46;98496.41;;;24.13;82.13
41264;BME280;26998;48.714;9.414;2023-07-31T10:47:17;98484.91;;;23.78;85.37
41264;BME280;26998;48.714;9.414;2023-07-31T10:49:46;98485.97;;;23.34;83.79
41264;BME280;26998;48.714;9.414;2023-07-31T10:52:12;98474.91;;;22.33;87.90
41264;BME280;26998;48.714;9.414;2023-07-31T10:54:39;98486.06;;;23.00;83.85
41264;BME280;26998;48.714;9.414;2023-07-31T10:57:32;98485.56;;;23.46;81.02
41264;BME280;26998;48.714;9.414;2023-07-31T11:00:18;98488.53;;;23.25;83.75
41264;BME280;26998;48.714;9.414;2023-07-31T11:03:04;98493.69;;;23.94;82.64
41264;BME280;26998;48.714;9.414;2023-07-31T11:06:03;98491.75;;;23.76;77.48
41264;BME280;26998;48.714;9.414;2023-07-31T11:08:32;98485.50;;;23.27;83.85
41264;BME280;26998;48.714;9.414;2023-07-31T11:16:14;98459.50;;;23.59;81.18
41264;BME280;26998;48.714;9.414;2023-07-31T11:18:45;98467.41;;;23.12;80.56
41264;BME280;26998;48.714;9.414;2023-07-31T11:21:16;98465.00;;;23.29;81.44
41264;BME280;26998;48.714;9.414;2023-07-31T11:23:47;98466.84;;;24.01;80.48
41264;BME280;26998;48.714;9.414;2023-07-31T11:26:14;98457.56;;;24.02;74.11
41264;BME280;26998;48.714;9.414;2023-07-31T11:28:40;98456.25;;;24.32;81.20
41264;BME280;26998;48.714;9.414;2023-07-31T11:31:10;98455.25;;;24.09;78.32
41264;BME280;26998;48.714;9.414;2023-07-31T11:33:37;98463.44;;;23.71;75.01
41264;BME280;26998;48.714;9.414;2023-07-31T11:36:04;98464.25;;;23.48;75.46
41264;BME280;26998;48.714;9.414;2023-07-31T11:38:32;98460.53;;;23.39;77.74
41264;BME280;26998;48.714;9.414;2023-07-31T11:41:02;98456.88;;;23.72;80.68
41264;BME280;26998;48.714;9.414;2023-07-31T11:43:31;98462.59;;;23.52;79.91
41264;BME280;26998;48.714;9.414;2023-07-31T11:45:59;98461.22;;;23.31;76.05
41264;BME280;26998;48.714;9.414;2023-07-31T11:48:34;98455.50;;;23.27;79.16
41264;BME280;26998;48.714;9.414;2023-07-31T11:51:04;98451.59;;;23.33;82.23
41264;BME280;26998;48.714;9.414;2023-07-31T11:53:35;98449.06;;;22.94;83.75
41264;BME280;26998;48.714;9.414;2023-07-31T11:56:03;98451.06;;;23.12;84.24
41264;BME280;26998;48.714;9.414;2023-07-31T11:58:31;98446.94;;;23.15;83.25
41264;BME280;26998;48.714;9.414;2023-07-31T12:00:58;98437.69;;;23.11;84.74
41264;BME280;26998;48.714;9.414;2023-07-31T12:03:25;98439.75;;;23.00;84.59
41264;BME280;26998;48.714;9.414;2023-07-31T12:05:53;98432.97;;;22.92;85.46
41264;BME280;26998;48.714;9.414;2023-07-31T12:08:21;98426.06;;;22.76;84.87
41264;BME280;26998;48.714;9.414;2023-07-31T12:10:52;98422.75;;;22.79;83.39
41264;BME280;26998;48.714;9.414;2023-07-31T12:13:26;98414.28;;;22.56;84.63
41264;BME280;26998;48.714;9.414;2023-07-31T12:15:55;98413.31;;;22.71;86.97
41264;BME280;26998;48.714;9.414;2023-07-31T12:18:23;98403.47;;;22.75;86.04
41264;BME280;26998;48.714;9.414;2023-07-31T12:20:55;98399.72;;;22.95;89.74
41264;BME280;26998;48.714;9.414;2023-07-31T12:23:27;98400.13;;;22.83;86.53
41264;BME280;26998;48.714;9.414;2023-07-31T12:28:56;98402.66;;;22.46;92.58
41264;BME280;26998;48.714;9.414;2023-07-31T12:31:22;98400.31;;;22.34;91.14
41264;BME280;26998;48.714;9.414;2023-07-31T12:33:51;98390.25;;;22.34;91.65
41264;BME280;26998;48.714;9.414;2023-07-31T12:36:23;98387.63;;;22.53;88.55
41264;BME280;26998;48.714;9.414;2023-07-31T12:38:51;98387.22;;;22.36;90.04
41264;BME280;26998;48.714;9.414;2023-07-31T12:41:18;98382.16;;;22.53;92.59
41264;BME280;26998;48.714;9.414;2023-07-31T12:43:45;98388.38;;;22.59;93.95
41264;BME280;26998;48.714;9.414;2023-07-31T12:46:12;98381.91;;;22.79;92.27
41264;BME280;26998;48.714;9.414;2023-07-31T12:48:39;98380.91;;;22.70;91.24
41264;BME280;26998;48.714;9.414;2023-07-31T12:51:06;98373.25;;;22.72;93.29
41264;BME280;26998;48.714;9.414;2023-07-31T12:53:33;98367.91;;;22.62;92.41
41264;BME280;26998;48.714;9.414;2023-07-31T12:56:02;98358.94;;;22.61;93.92
41264;BME280;26998;48.714;9.414;2023-07-31T12:58:29;98353.78;;;22.30;91.64
41264;BME280;26998;48.714;9.414;2023-07-31T13:00:56;98353.03;;;22.25;93.17
41264;BME280;26998;48.714;9.414;2023-07-31T13:03:22;98350.66;;;22.13;91.88
41264;BME280;26998;48.714;9.414;2023-07-31T13:05:49;98352.47;;;22.28;94.93
41264;BME280;26998;48.714;9.414;2023-07-31T13:08:16;98344.44;;;22.42;95.29
41264;BME280;26998;48.714;9.414;2023-07-31T13:10:43;98351.47;;;22.19;94.92